Mullingar, Ireland
Current Conditions -  °F | °C
As of 8:00 PM on Thursday 23 Oct 2014 (Local Time) from EIME Reporting Station
Rain Showers Rain Showers  
Wind Chill: 57°   Ceiling: 1600
Heat Index: 57°   Visibility: 6mi
Dew Point: 54°   Wind: 14mph
Humidity: 88%   Direction: 220°SW
Pressure: 29.83"   Gusts: NA
Location:  53.53°N, 7.34°W
Report Text: EIME 232000Z 22012KT 9000E VCSH FEW014 BKN016 BKN033 14/12 Q1010
Loading
Personal Weather Stations






























Interactive Weather Map
Tropical Storm Tracking
New forecast layout! Learn more

10-Day Weather Forecast

Advertisements
Track Severe Weather on mobile